Flight Track Log - Related Links

Times and Time Zones

All times are in EDT time to prevent confusion due to time zone crossing. See the JBU24 flight status page for this flight to view local times or setup timezone preferences in your user account.


Time Position Orientation Groundspeed Altitude Reporting Facility
EDT Latitude Longitude Course Direction KTS MPH feet Rate Location/Type
Sat 05:35:18 PM 40.6333 -73.7667 316° Northwest 156 180 1,600  Level New York TRACON
Sat 05:36:18 PM 40.6167 -73.6833 105° East 229 264 3,100 2,250 Climbing New York TRACON
Sat 05:37:00 PM 40.8016 -74.0016 323° Northwest  Level FlightAware Approximate
Sat 05:37:18 PM 40.6500 -73.6000 62° Northeast 272 313 6,100  Level New York TRACON
Sat 05:38:00 PM 40.8586 -74.0795 311° West  Level FlightAware Approximate
Sat 05:39:00 PM 40.9130 -74.1611 311° West  Level FlightAware Approximate
Sat 05:39:28 PM 40.8181 -73.5736 North 312 359 11,400  Level New York Center
Sat 05:40:00 PM 40.9717 -74.2373 316° Northwest  Level FlightAware Approximate
Sat 05:40:18 PM 40.8833 -73.5833 354° North 312 359 14,000  Level New York TRACON
Sat 05:41:18 PM 40.9500 -73.6667 317° Northwest 317 365 16,200 1,500 Climbing New York TRACON
Sat 05:42:18 PM 40.9833 -73.7833 291° West 376 433 17,000 400 Climbing New York TRACON
Sat 05:43:18 PM 41.0167 -73.9000 291° West 352 405 17,000 603 Level New York TRACON
Sat 05:45:27 PM 41.0889 -74.1242 293° West 357 411 18,900 1,326 Climbing New York Center
Sat 05:46:28 PM 41.1269 -74.2500 292° West 345 397 21,200 1,537 Climbing New York Center
Sat 05:47:28 PM 41.1650 -74.3706 293° West 345 397 22,000 400 Climbing New York Center
Sat 05:48:28 PM 41.2008 -74.4883 292° West 345 397 22,000  Level New York Center
Sat 05:49:27 PM 41.2411 -74.5981 296° West 352 405 22,000  Level New York Center
Sat 05:50:28 PM 41.3083 -74.7122 308° West 346 398 22,000  Level New York Center
Sat 05:51:28 PM 41.3694 -74.8128 309° West 346 398 22,000  Level New York Center
Sat 05:52:29 PM 41.4325 -74.9133 310° West 351 404 22,000  Level New York Center
Sat 05:53:28 PM 41.4914 -75.0139 308° West 356 410 22,000  Level New York Center
Sat 05:54:27 PM 41.5525 -75.1119 310° West 356 410 22,000  Level New York Center
Sat 05:55:30 PM 41.6111 -75.2128 308° West 356 410 22,000  Level New York Center
Sat 05:56:29 PM 41.6742 -75.3114 311° West 356 410 22,000  Level New York Center
Sat 05:57:27 PM 41.7633 -75.3731 333° Northwest 350 403 22,000  Level New York Center
Sat 05:58:28 PM 41.8550 -75.4297 335° Northwest 355 409 22,000  Level New York Center
Sat 05:59:28 PM 41.9486 -75.4836 337° Northwest 360 414 22,000  Level New York Center
Sat 06:00:29 PM 42.0400 -75.5375 336° Northwest 360 414 22,000 -350 Level New York Center
Sat 06:01:28 PM 42.1314 -75.5917 336° Northwest 360 414 21,300 -1,261 Descending New York Center
Sat 06:02:28 PM 42.2250 -75.6461 337° Northwest 360 414 19,500 -1,721 Descending New York Center
Sat 06:03:30 PM 42.3186 -75.7008 337° Northwest 360 414 17,800 -1,866 Descending New York Center
Sat 06:04:27 PM 42.4081 -75.7525 337° Northwest 354 407 15,800 -2,139 Descending New York Center
Sat 06:05:11 PM 42.4717 -75.7928 335° Northwest 350 403 14,200 -2,061 Descending Boston Center
Sat 06:06:06 PM 42.5536 -75.8422 336° Northwest 344 396 12,400 -1,722 Descending Boston Center
Sat 06:07:06 PM 42.6378 -75.8922 336° Northwest 337 388 10,900 -1,240 Descending Boston Center
Sat 06:08:07 PM 42.7217 -75.9419 336° Northwest 293 337 9,900 -1,313 Descending Boston Center
Sat 06:09:14 PM 42.7975 -75.9858 337° Northwest 271 312 8,100 -1,843 Descending Boston Center
Sat 06:10:14 PM 42.8669 -76.0297 335° Northwest 277 319 6,000 -1,835 Descending Boston Center
Sat 06:11:15 PM 42.9319 -76.0872 327° Northwest 277 319 4,400 -1,180 Descending Boston Center
Sat 06:12:16 PM 42.9944 -76.1450 326° Northwest 272 313 3,600 -361 Descending Boston Center
Sat 06:13:28 PM 43.0714 -76.2150 326° Northwest 255 293 3,600 -451 Level Boston Center
Sat 06:14:29 PM 43.1317 -76.2244 353° North 213 245 2,600 -991 Descending Boston Center
Sat 06:15:23 PM 43.1558 -76.1833 51° Northeast 152 175 1,700 -881 Descending Boston Center
Sat 06:16:18 PM 43.1403 -76.1481 121° Southeast 122 140 1,000 -764 Descending Boston Center

Login

Don't have an account? Register now (free) for customized features, flight alerts, and more!